Time;durP1;ratioP1;P1;durP2;ratioP2;P2;SDS_P1;SDS_P2;PMS_P1;PMS_P2;Temp;Humidity;BMP_temperature;BMP_pressure;BME280_temperature;BME280_humidity;BME280_pressure;Samples;Min_cycle;Max_cycle;Signal;HPM_P1;HPM_P2
2022/04/02 00:01:04;;;;;;;47.55;25.42;;;;;;;0.39;100.00;97958.78;4478084;32;34607;-79
2022/04/02 00:03:51;;;;;;;45.12;24.02;;;;;;;0.51;100.00;97958.37;4477959;31;34487;-80
2022/04/02 00:06:37;;;;;;;41.72;22.90;;;;;;;0.27;100.00;97956.47;4467054;32;35563;-80
2022/04/02 00:09:24;;;;;;;47.15;25.83;;;;;;;0.34;100.00;97956.97;4465993;32;34707;-80
2022/04/02 00:12:10;;;;;;;46.08;24.02;;;;;;;0.21;100.00;97963.00;4478522;32;33527;-79
2022/04/02 00:14:57;;;;;;;47.22;24.55;;;;;;;0.23;100.00;97958.16;4466590;32;35208;-79
2022/04/02 00:17:44;;;;;;;45.30;24.37;;;;;;;0.21;100.00;97963.00;4467991;32;35185;-79
2022/04/02 00:20:30;;;;;;;46.50;26.55;;;;;;;0.20;100.00;97973.00;4457421;32;34481;-80
2022/04/02 00:26:21;;;;;;;44.25;29.05;;;;;;;0.07;100.00;97972.84;4480215;32;34428;-80
2022/04/02 00:29:11;;;;;;;44.28;25.15;;;;;;;0.04;100.00;97952.66;4468031;32;35513;-80
2022/04/02 00:31:57;;;;;;;42.83;24.27;;;;;;;0.05;100.00;97938.09;4480569;32;34557;-80
2022/04/02 00:34:44;;;;;;;44.75;25.62;;;;;;;-0.02;100.00;97943.03;4478679;31;34641;-79
2022/04/02 00:37:31;;;;;;;48.20;27.33;;;;;;;-0.02;100.00;97935.75;4480784;32;33343;-79
2022/04/02 00:40:17;;;;;;;44.80;25.98;;;;;;;-0.13;100.00;97941.50;4480626;32;34267;-79
2022/04/02 00:43:04;;;;;;;50.60;33.15;;;;;;;-0.14;100.00;97924.56;4467486;32;36445;-80
2022/04/02 00:45:51;;;;;;;45.33;28.08;;;;;;;-0.14;100.00;97927.25;4479341;32;35427;-80
2022/04/02 00:48:39;;;;;;;44.35;25.77;;;;;;;-0.13;100.00;97915.38;4469229;32;34277;-79
2022/04/02 00:51:26;;;;;;;47.08;26.95;;;;;;;-0.13;100.00;97911.91;4467616;32;34127;-79
2022/04/02 00:54:14;;;;;;;46.30;24.10;;;;;;;-0.15;100.00;97922.94;4457241;32;34453;-79
2022/04/02 00:57:01;;;;;;;45.40;29.17;;;;;;;-0.17;100.00;97917.06;4456522;32;34658;-80
2022/04/02 00:59:47;;;;;;;43.58;23.90;;;;;;;-0.20;100.00;97925.66;4468284;32;34244;-80
2022/04/02 01:02:34;;;;;;;41.22;23.40;;;;;;;-0.13;100.00;97926.16;4467050;32;35941;-80
2022/04/02 01:05:21;;;;;;;43.03;26.42;;;;;;;-0.13;100.00;97923.47;4479735;31;35017;-80
2022/04/02 01:08:08;;;;;;;44.50;22.10;;;;;;;-0.18;100.00;97928.87;4479814;32;35398;-78
2022/04/02 01:10:57;;;;;;;39.90;21.30;;;;;;;0.03;100.00;97926.00;4480572;32;33776;-80
2022/04/02 01:13:44;;;;;;;35.03;19.17;;;;;;;0.05;100.00;97940.00;4468007;32;34514;-79
2022/04/02 01:16:32;;;;;;;40.70;21.10;;;;;;;0.05;100.00;97948.06;4467794;32;36021;-80
2022/04/02 01:19:18;;;;;;;33.78;17.35;;;;;;;0.07;100.00;97954.00;4479252;32;34868;-79
2022/04/02 01:22:06;;;;;;;36.35;20.08;;;;;;;0.30;100.00;97960.50;4457560;32;35363;-80
2022/04/02 01:24:53;;;;;;;35.33;19.00;;;;;;;0.01;100.00;97965.91;4480810;32;34544;-80
2022/04/02 01:27:39;;;;;;;35.75;18.92;;;;;;;0.08;100.00;97979.81;4479380;32;35131;-79
2022/04/02 01:30:27;;;;;;;31.75;17.08;;;;;;;0.18;100.00;97979.75;4456131;32;35647;-79
2022/04/02 01:33:14;;;;;;;30.85;16.95;;;;;;;0.19;100.00;97989.41;4479808;32;34169;-78
2022/04/02 01:36:03;;;;;;;36.58;17.27;;;;;;;0.54;100.00;97988.28;4479025;31;34624;-80
2022/04/02 01:38:51;;;;;;;32.85;16.62;;;;;;;0.58;100.00;97993.91;4468247;32;34865;-78
2022/04/02 01:41:39;;;;;;;31.50;16.23;;;;;;;0.33;100.00;97989.56;4467842;32;33349;-79
2022/04/02 01:44:25;;;;;;;30.45;16.48;;;;;;;0.58;100.00;97994.69;4480490;32;33764;-79
2022/04/02 01:47:11;;;;;;;33.67;18.00;;;;;;;0.57;100.00;97989.59;4468736;32;34624;-80
2022/04/02 01:49:58;;;;;;;31.00;16.40;;;;;;;0.49;99.83;97995.63;4480979;32;34986;-80
2022/04/02 01:52:44;;;;;;;30.98;16.70;;;;;;;0.77;100.00;97988.56;4479225;32;35467;-79
2022/04/02 01:55:31;;;;;;;28.62;16.08;;;;;;;1.07;97.30;98000.88;4457829;32;34994;-79
2022/04/02 01:58:19;;;;;;;27.70;15.73;;;;;;;1.48;95.21;97994.94;4480614;32;34639;-79
2022/04/02 02:01:06;;;;;;;29.67;16.12;;;;;;;0.93;95.37;97999.97;4467617;32;34938;-78
2022/04/02 02:03:53;;;;;;;29.60;16.42;;;;;;;0.98;94.90;98008.81;4467602;32;34576;-79
2022/04/02 02:06:41;;;;;;;30.88;16.10;;;;;;;0.71;96.39;98001.28;4480411;32;34198;-79
2022/04/02 02:09:29;;;;;;;32.83;17.08;;;;;;;0.31;99.68;98005.19;4466788;31;34606;-79
2022/04/02 02:12:15;;;;;;;35.60;18.05;;;;;;;0.43;100.00;98011.03;4455779;32;34792;-79
2022/04/02 02:15:02;;;;;;;30.73;15.93;;;;;;;0.37;100.00;98015.66;4480072;32;35769;-79
2022/04/02 02:17:49;;;;;;;33.65;17.48;;;;;;;1.03;97.74;98016.06;4457546;32;35330;-78
2022/04/02 02:20:36;;;;;;;30.55;16.92;;;;;;;1.00;96.97;98019.31;4468113;32;34596;-79
2022/04/02 02:23:22;;;;;;;31.85;16.67;;;;;;;1.01;95.29;98012.84;4467596;32;34453;-79
2022/04/02 02:26:09;;;;;;;32.42;17.05;;;;;;;0.29;98.82;98016.28;4478387;31;34708;-79
2022/04/02 02:28:55;;;;;;;34.42;17.33;;;;;;;-0.21;100.00;98017.50;4467677;32;33999;-79
2022/04/02 02:31:42;;;;;;;31.83;17.25;;;;;;;0.11;100.00;98020.44;4467083;32;34094;-79
2022/04/02 02:37:34;;;;;;;30.30;16.92;;;;;;;0.28;100.00;98017.34;4478159;32;34340;-79
2022/04/02 02:40:21;;;;;;;34.70;18.15;;;;;;;0.22;100.00;98010.41;4467456;32;35078;-79
2022/04/02 02:43:08;;;;;;;34.15;17.62;;;;;;;-0.09;100.00;98001.78;4478382;32;34588;-79
2022/04/02 02:45:55;;;;;;;32.33;18.75;;;;;;;-0.26;100.00;98010.25;4468383;32;34469;-80
2022/04/02 02:48:42;;;;;;;31.33;17.75;;;;;;;-0.39;100.00;98002.81;4479107;32;34626;-79
2022/04/02 02:51:28;;;;;;;32.95;17.42;;;;;;;0.05;100.00;98012.72;4467094;31;34112;-79
2022/04/02 02:54:14;;;;;;;32.92;16.92;;;;;;;-0.11;100.00;98020.91;4467117;32;35580;-79
2022/04/02 02:57:01;;;;;;;31.23;17.20;;;;;;;0.40;100.00;98025.88;4467464;32;35749;-79
2022/04/02 02:59:47;;;;;;;31.62;17.30;;;;;;;0.02;100.00;98026.75;4477240;31;35997;-79
2022/04/02 03:02:37;;;;;;;31.62;17.50;;;;;;;0.39;99.04;98029.63;4478690;32;33929;-79
2022/04/02 03:05:25;;;;;;;30.90;16.87;;;;;;;0.04;100.00;98027.28;4467820;32;34094;-79
2022/04/02 03:08:12;;;;;;;32.10;17.80;;;;;;;0.08;100.00;98022.91;4476677;32;35127;-79
2022/04/02 03:11:00;;;;;;;30.35;15.80;;;;;;;0.12;100.00;98016.69;4467398;32;34564;-79
2022/04/02 03:13:47;;;;;;;33.70;17.98;;;;;;;0.21;100.00;98033.03;4479267;32;35401;-79
2022/04/02 03:16:34;;;;;;;30.20;16.35;;;;;;;-0.03;100.00;98032.94;4478498;32;35150;-79
2022/04/02 03:19:20;;;;;;;35.13;17.42;;;;;;;-0.11;100.00;98039.75;4456745;32;34974;-78
2022/04/02 03:22:09;;;;;;;30.60;16.15;;;;;;;-0.06;100.00;98036.22;4477992;32;34701;-79
2022/04/02 03:24:55;;;;;;;30.23;16.23;;;;;;;-0.03;100.00;98047.25;4475868;31;34788;-79
2022/04/02 03:27:43;;;;;;;31.58;17.05;;;;;;;0.13;100.00;98033.66;4473989;31;34456;-78
2022/04/02 03:30:30;;;;;;;32.15;17.65;;;;;;;0.10;100.00;98037.72;4454903;32;35908;-79
2022/04/02 03:33:20;;;;;;;32.20;17.83;;;;;;;-0.33;100.00;98040.16;4465296;32;34379;-79
2022/04/02 03:36:06;;;;;;;34.30;18.15;;;;;;;0.08;100.00;98050.63;4478076;32;34274;-79
2022/04/02 03:38:52;;;;;;;34.78;17.70;;;;;;;-0.17;100.00;98050.81;4466552;32;34631;-79
2022/04/02 03:41:39;;;;;;;31.55;17.17;;;;;;;-0.30;100.00;98049.56;4478080;31;35659;-80
2022/04/02 03:44:26;;;;;;;35.35;19.30;;;;;;;-0.06;100.00;98047.81;4465573;32;34865;-78
2022/04/02 03:47:12;;;;;;;36.47;22.00;;;;;;;-0.52;100.00;98045.38;4480050;31;34156;-79
2022/04/02 03:49:59;;;;;;;35.45;19.95;;;;;;;-0.70;100.00;98040.66;4467966;32;34692;-79
2022/04/02 03:52:46;;;;;;;31.52;17.92;;;;;;;-0.62;100.00;98032.00;4457025;32;34934;-79
2022/04/02 03:55:33;;;;;;;37.05;20.35;;;;;;;-0.61;100.00;98030.91;4479909;32;35488;-79
2022/04/02 03:58:20;;;;;;;35.25;18.20;;;;;;;-0.61;100.00;98043.56;4468208;32;33025;-79
2022/04/02 04:01:07;;;;;;;34.28;16.73;;;;;;;-0.44;100.00;98032.44;4480702;32;34729;-78
2022/04/02 04:03:54;;;;;;;37.70;19.70;;;;;;;-0.17;100.00;98032.81;4479842;31;35717;-79
2022/04/02 04:06:40;;;;;;;37.35;20.27;;;;;;;-0.20;100.00;98027.97;4479878;31;33610;-78
2022/04/02 04:09:28;;;;;;;31.62;16.23;;;;;;;-0.17;100.00;98024.72;4480886;31;35348;-80
2022/04/02 04:12:14;;;;;;;35.33;19.42;;;;;;;-0.36;100.00;98024.59;4466972;31;35214;-79
2022/04/02 04:15:03;;;;;;;33.05;19.20;;;;;;;-0.35;100.00;98025.38;4479836;31;35071;-79
2022/04/02 04:17:50;;;;;;;31.62;16.98;;;;;;;-0.44;100.00;98027.84;4468861;32;34126;-79
2022/04/02 04:20:36;;;;;;;31.10;16.50;;;;;;;-0.58;100.00;98030.34;4457879;32;33987;-79
2022/04/02 04:23:25;;;;;;;35.95;18.35;;;;;;;-0.23;100.00;98036.59;4458641;31;35563;-79
2022/04/02 04:26:13;;;;;;;34.42;18.37;;;;;;;-0.46;100.00;98047.00;4480423;32;34639;-78
2022/04/02 04:29:04;;;;;;;29.83;15.40;;;;;;;-0.32;100.00;98044.47;4467139;32;34223;-78
2022/04/02 04:31:50;;;;;;;39.17;19.15;;;;;;;-0.56;100.00;98038.16;4480288;32;33702;-78
2022/04/02 04:34:36;;;;;;;35.00;18.25;;;;;;;-0.56;100.00;98035.47;4480170;31;34765;-79
2022/04/02 04:37:23;;;;;;;30.20;16.15;;;;;;;-0.37;100.00;98046.38;4480617;32;34877;-78
2022/04/02 04:40:11;;;;;;;32.03;19.27;;;;;;;-0.36;100.00;98050.69;4468830;32;34087;-79
2022/04/02 04:42:58;;;;;;;36.08;18.15;;;;;;;-0.29;100.00;98053.88;4479743;31;34363;-79
2022/04/02 04:45:46;;;;;;;34.10;17.87;;;;;;;-0.36;100.00;98056.87;4479385;31;34671;-79
2022/04/02 04:48:33;;;;;;;37.22;20.50;;;;;;;-0.27;100.00;98065.16;4469114;32;35865;-79
2022/04/02 04:51:23;;;;;;;39.20;19.30;;;;;;;-0.40;100.00;98053.12;4457294;32;34140;-78
2022/04/02 04:54:10;;;;;;;39.03;20.02;;;;;;;-0.42;100.00;98057.19;4469546;31;34218;-79
2022/04/02 04:56:56;;;;;;;39.58;21.95;;;;;;;-0.49;100.00;98063.66;4467870;32;35496;-78
2022/04/02 04:59:42;;;;;;;36.50;19.10;;;;;;;-0.61;100.00;98060.50;4468170;32;35485;-79
2022/04/02 05:02:30;;;;;;;34.97;19.15;;;;;;;-0.38;100.00;98060.94;4466801;32;34866;-79
2022/04/02 05:05:18;;;;;;;37.50;21.25;;;;;;;-0.58;100.00;98073.41;4481050;31;34461;-79
2022/04/02 05:08:18;;;;;;;37.83;21.30;;;;;;;-0.39;100.00;98056.63;4480421;31;34576;-79
2022/04/02 05:11:05;;;;;;;39.22;19.27;;;;;;;-0.47;100.00;98071.47;4464893;31;34969;-79
2022/04/02 05:13:52;;;;;;;36.03;20.02;;;;;;;0.04;100.00;98075.75;4468742;32;35360;-79
2022/04/02 05:16:39;;;;;;;37.33;19.70;;;;;;;-0.27;100.00;98074.03;4467037;32;34284;-79
2022/04/02 05:19:27;;;;;;;35.13;19.10;;;;;;;-0.32;100.00;98073.25;4466512;32;34655;-79
2022/04/02 05:22:14;;;;;;;37.38;19.75;;;;;;;-0.14;100.00;98079.87;4456769;32;34568;-79
2022/04/02 05:25:01;;;;;;;39.85;20.12;;;;;;;-0.38;100.00;98087.84;4480801;31;35478;-79
2022/04/02 05:27:47;;;;;;;34.97;19.17;;;;;;;-0.15;100.00;98089.84;4481047;31;34805;-79
2022/04/02 05:30:36;;;;;;;38.42;21.00;;;;;;;-0.15;100.00;98094.44;4477776;31;35127;-78
2022/04/02 05:33:23;;;;;;;40.78;20.35;;;;;;;-0.50;100.00;98094.34;4468660;32;34990;-78
2022/04/02 05:36:27;;;;;;;40.88;22.23;;;;;;;-0.32;100.00;98100.19;4479279;32;34691;-78
2022/04/02 05:39:13;;;;;;;37.78;23.12;;;;;;;-0.38;100.00;98106.66;4480496;32;35105;-79
2022/04/02 05:42:02;;;;;;;41.92;22.05;;;;;;;-0.30;100.00;98106.09;4478166;31;34586;-79
2022/04/02 05:44:48;;;;;;;37.42;20.25;;;;;;;-0.43;100.00;98098.62;4457346;32;35874;-78
2022/04/02 05:47:46;;;;;;;37.17;21.02;;;;;;;-0.08;100.00;98101.13;4477341;31;34717;-79
2022/04/02 05:50:33;;;;;;;36.63;21.52;;;;;;;-0.40;100.00;98098.88;4466044;31;34818;-78
2022/04/02 05:53:23;;;;;;;35.92;19.87;;;;;;;-0.20;100.00;98092.56;4467940;32;34260;-79
2022/04/02 05:56:09;;;;;;;36.97;19.02;;;;;;;0.57;100.00;98105.47;4466151;32;35010;-78
2022/04/02 05:58:56;;;;;;;36.75;19.58;;;;;;;0.48;100.00;98107.19;4479847;31;35724;-79
2022/04/02 06:01:42;;;;;;;36.50;18.65;;;;;;;0.55;100.00;98113.06;4476778;31;33950;-82
2022/04/02 06:04:29;;;;;;;35.22;18.80;;;;;;;1.08;100.00;98110.37;4467069;32;34548;-81
2022/04/02 06:07:15;;;;;;;34.33;18.17;;;;;;;0.82;97.08;98102.53;4467628;32;34639;-81
2022/04/02 06:10:03;;;;;;;32.88;18.23;;;;;;;1.21;97.03;98103.50;4467792;31;34668;-81
2022/04/02 06:12:51;;;;;;;33.92;18.05;;;;;;;0.87;95.90;98115.97;4466372;31;35092;-80
2022/04/02 06:15:37;;;;;;;29.58;15.63;;;;;;;1.02;96.73;98114.22;4467717;31;34234;-82
2022/04/02 06:18:24;;;;;;;31.87;17.27;;;;;;;1.10;95.19;98116.28;4464553;31;35497;-81
2022/04/02 06:21:11;;;;;;;28.33;15.60;;;;;;;0.83;96.24;98124.94;4467810;32;35292;-81
2022/04/02 06:23:58;;;;;;;30.48;16.98;;;;;;;1.02;95.63;98123.09;4467009;32;35081;-81
2022/04/02 06:26:44;;;;;;;29.83;16.90;;;;;;;1.03;95.09;98132.03;4479594;32;33494;-81
2022/04/02 06:29:31;;;;;;;30.23;16.70;;;;;;;1.16;95.08;98134.03;4479650;32;35987;-81
2022/04/02 06:32:20;;;;;;;30.73;15.82;;;;;;;1.23;94.85;98129.12;4467325;32;34600;-82
2022/04/02 06:35:07;;;;;;;29.27;15.73;;;;;;;1.39;94.33;98131.63;4476900;31;34147;-81
2022/04/02 06:37:55;;;;;;;31.85;16.67;;;;;;;1.18;95.74;98134.56;4467538;31;35381;-80
2022/04/02 06:40:41;;;;;;;28.40;15.55;;;;;;;1.56;94.42;98131.97;4453282;32;34989;-81
2022/04/02 06:43:28;;;;;;;31.00;16.10;;;;;;;1.66;93.75;98131.03;4477121;32;34380;-81
2022/04/02 06:46:15;;;;;;;26.55;15.02;;;;;;;1.40;94.63;98139.44;4466252;32;34236;-81
2022/04/02 06:49:01;;;;;;;27.90;15.30;;;;;;;1.48;92.57;98133.41;4473850;31;34682;-81
2022/04/02 06:51:48;;;;;;;29.63;17.10;;;;;;;1.42;92.89;98144.53;4460405;31;34604;-81
2022/04/02 06:54:34;;;;;;;25.23;13.98;;;;;;;0.99;93.87;98134.47;4480087;32;33800;-81
2022/04/02 06:57:21;;;;;;;30.50;15.77;;;;;;;1.21;93.56;98142.06;4478997;32;35334;-81
2022/04/02 07:00:09;;;;;;;34.50;16.90;;;;;;;1.63;93.13;98143.22;4461088;32;34143;-81
2022/04/02 07:02:55;;;;;;;32.45;19.25;;;;;;;1.55;93.92;98138.47;4462858;32;34543;-82
2022/04/02 07:05:41;;;;;;;35.20;20.02;;;;;;;1.53;91.98;98138.72;4480584;32;34368;-82
2022/04/02 07:08:28;;;;;;;27.23;15.50;;;;;;;1.50;93.37;98146.63;4477309;32;34873;-81
2022/04/02 07:11:15;;;;;;;26.85;14.70;;;;;;;1.58;92.42;98137.88;4466149;32;34128;-82
2022/04/02 07:14:01;;;;;;;25.37;14.68;;;;;;;1.71;93.52;98139.88;4477072;32;35024;-81
2022/04/02 07:16:48;;;;;;;24.45;13.80;;;;;;;2.14;92.01;98150.66;4454796;32;33410;-81
2022/04/02 07:19:37;;;;;;;25.02;13.50;;;;;;;1.65;91.57;98169.91;4480216;32;34367;-81
2022/04/02 07:22:24;;;;;;;22.65;14.40;;;;;;;2.29;90.31;98156.94;4467385;32;33446;-82
2022/04/02 07:25:12;;;;;;;24.70;12.82;;;;;;;2.08;89.19;98153.69;4467210;32;34720;-81
2022/04/02 07:27:58;;;;;;;23.48;13.48;;;;;;;2.33;89.52;98145.22;4468664;32;35170;-81
2022/04/02 07:30:46;;;;;;;21.25;10.95;;;;;;;2.05;89.97;98160.50;4466425;32;34421;-82
2022/04/02 07:33:33;;;;;;;21.77;12.45;;;;;;;2.69;86.67;98150.09;4464973;32;34173;-82
2022/04/02 07:36:27;;;;;;;23.55;12.68;;;;;;;2.65;85.24;98152.59;4465637;32;34985;-81
2022/04/02 07:39:17;;;;;;;21.80;11.18;;;;;;;2.96;84.86;98152.09;4466026;32;35177;-80
2022/04/02 07:42:27;;;;;;;21.83;11.98;;;;;;;2.65;84.49;98143.69;4468192;32;34853;-82
2022/04/02 07:45:18;;;;;;;22.40;11.25;;;;;;;2.62;84.30;98149.69;4464264;32;34327;-82
2022/04/02 07:48:07;;;;;;;20.45;11.75;;;;;;;3.02;83.14;98161.72;4469040;32;36335;-82
2022/04/02 07:50:53;;;;;;;19.70;11.68;;;;;;;2.73;85.15;98163.81;4457108;32;34846;-82
2022/04/02 07:53:50;;;;;;;20.73;10.82;;;;;;;2.71;85.60;98169.53;4466817;32;34996;-81
2022/04/02 07:56:38;;;;;;;22.50;12.25;;;;;;;2.91;86.02;98173.81;4466537;32;35680;-82
2022/04/02 07:59:35;;;;;;;21.87;13.30;;;;;;;2.99;84.02;98175.84;4465835;32;34760;-82
2022/04/02 08:02:38;;;;;;;24.25;13.93;;;;;;;2.97;84.29;98169.91;4467328;32;34599;-81
2022/04/02 08:05:25;;;;;;;25.80;14.27;;;;;;;3.10;85.47;98184.56;4457389;32;34781;-81
2022/04/02 08:08:12;;;;;;;26.25;14.18;;;;;;;2.95;85.71;98174.81;4477856;32;34462;-80
2022/04/02 08:11:03;;;;;;;23.50;13.00;;;;;;;3.36;85.68;98177.59;4477301;31;33813;-81
2022/04/02 08:13:50;;;;;;;25.27;13.95;;;;;;;3.85;80.94;98178.00;4461869;32;34634;-80
2022/04/02 08:16:42;;;;;;;23.98;13.68;;;;;;;2.98;84.68;98173.41;4477548;32;34215;-81
2022/04/02 08:19:32;;;;;;;42.75;27.70;;;;;;;2.66;86.35;98177.72;4455840;32;33480;-80
2022/04/02 08:22:18;;;;;;;30.80;22.52;;;;;;;2.71;87.09;98177.66;4464616;32;35977;-79
2022/04/02 08:25:05;;;;;;;20.30;12.52;;;;;;;2.85;86.39;98172.28;4463857;32;34486;-82
2022/04/02 08:28:07;;;;;;;23.55;12.88;;;;;;;2.76;86.30;98182.97;4465216;32;35233;-82
2022/04/02 08:31:04;;;;;;;23.08;12.43;;;;;;;3.31;84.20;98185.03;4461850;32;34518;-81
2022/04/02 08:34:22;;;;;;;21.92;12.65;;;;;;;3.44;85.16;98189.63;4465525;32;34951;-81
2022/04/02 08:37:21;;;;;;;20.90;12.37;;;;;;;3.49;82.02;98194.97;4476945;32;34695;-81
2022/04/02 08:40:20;;;;;;;22.00;12.45;;;;;;;3.53;83.07;98190.56;4467920;32;34158;-83
2022/04/02 08:43:32;;;;;;;23.20;13.20;;;;;;;3.59;82.90;98202.91;4478442;32;34619;-83
2022/04/02 08:46:21;;;;;;;23.42;13.07;;;;;;;3.31;84.53;98196.66;4477981;32;34484;-80
2022/04/02 08:49:41;;;;;;;21.42;13.13;;;;;;;3.86;82.22;98201.28;4477623;32;34758;-81
2022/04/02 08:52:52;;;;;;;21.52;13.35;;;;;;;3.92;82.47;98205.50;4478174;32;34042;-81
2022/04/02 08:55:49;;;;;;;22.87;13.93;;;;;;;3.38;84.91;98207.06;4486516;31;35335;-81
2022/04/02 08:58:50;;;;;;;19.98;11.45;;;;;;;3.41;83.42;98216.50;4468507;32;34423;-81
2022/04/02 09:02:28;;;;;;;21.65;12.13;;;;;;;3.39;84.49;98214.12;4466460;32;34558;-82
2022/04/02 09:05:19;;;;;;;23.38;12.07;;;;;;;3.69;83.42;98217.34;4461216;32;35101;-81
2022/04/02 09:08:31;;;;;;;21.15;12.27;;;;;;;3.82;83.25;98217.34;4476212;32;34716;-82
2022/04/02 09:11:23;;;;;;;19.27;10.52;;;;;;;4.14;82.13;98214.81;4475331;32;34614;-82
2022/04/02 09:14:27;;;;;;;17.50;11.00;;;;;;;4.40;81.45;98213.16;4441452;32;34615;-82
2022/04/02 09:17:33;;;;;;;19.73;12.05;;;;;;;3.40;83.80;98214.91;4478805;32;35569;-80
2022/04/02 09:20:37;;;;;;;20.20;11.35;;;;;;;3.31;83.61;98228.34;4477059;32;34576;-81
2022/04/02 09:23:24;;;;;;;19.60;10.50;;;;;;;3.63;82.13;98232.09;4478190;32;34607;-81
2022/04/02 09:26:31;;;;;;;18.92;11.27;;;;;;;3.59;82.74;98232.69;4466006;32;35434;-82
2022/04/02 09:29:37;;;;;;;23.05;10.32;;;;;;;3.96;82.00;98232.81;4479296;32;35107;-81
2022/04/02 09:32:57;;;;;;;19.37;10.32;;;;;;;4.28;79.51;98238.09;4467853;32;34488;-81
2022/04/02 09:36:18;;;;;;;20.23;10.73;;;;;;;4.33;78.40;98236.41;4466437;32;35583;-82
2022/04/02 09:39:06;;;;;;;17.05;11.02;;;;;;;4.26;79.57;98250.34;4479983;32;34802;-81
2022/04/02 09:42:11;;;;;;;20.95;11.73;;;;;;;3.58;82.77;98250.03;4457390;32;34369;-81
2022/04/02 09:44:59;;;;;;;49.13;23.45;;;;;;;3.91;82.71;98258.09;4456244;32;34591;-82
2022/04/02 09:47:49;;;;;;;37.63;17.65;;;;;;;3.72;80.79;98254.66;4466255;32;35892;-81
2022/04/02 09:50:37;;;;;;;46.90;16.87;;;;;;;4.05;80.52;98249.97;4479575;32;34297;-81
2022/04/02 09:53:29;;;;;;;70.80;24.12;;;;;;;3.83;81.95;98256.88;4466975;32;34347;-81
2022/04/02 09:56:27;;;;;;;92.62;28.98;;;;;;;4.04;81.18;98265.44;4465595;32;35124;-81
2022/04/02 09:59:28;;;;;;;175.27;52.65;;;;;;;4.13;80.87;98264.72;4465913;32;34435;-81
2022/04/02 10:02:39;;;;;;;191.88;46.67;;;;;;;3.81;81.70;98269.13;4467190;32;34350;-81
2022/04/02 10:05:45;;;;;;;25.70;11.98;;;;;;;4.15;81.19;98266.00;4477236;32;34393;-81
2022/04/02 10:08:58;;;;;;;48.78;16.95;;;;;;;4.50;79.23;98279.94;4478214;32;34751;-82
2022/04/02 10:11:55;;;;;;;39.92;15.90;;;;;;;4.19;80.07;98271.66;4466426;32;35677;-82
2022/04/02 10:14:41;;;;;;;54.10;20.90;;;;;;;4.46;78.52;98273.50;4458229;32;34653;-81
2022/04/02 10:17:29;;;;;;;18.92;9.18;;;;;;;4.61;79.05;98269.66;4480032;32;33864;-81
2022/04/02 10:20:19;;;;;;;18.00;9.38;;;;;;;4.48;78.84;98272.09;4465280;32;34061;-82
2022/04/02 10:23:18;;;;;;;19.05;10.50;;;;;;;4.21;78.28;98272.13;4468880;32;34522;-80
2022/04/02 10:26:18;;;;;;;22.60;10.20;;;;;;;4.90;76.96;98275.53;4480279;32;34187;-82
2022/04/02 10:29:12;;;;;;;17.90;10.07;;;;;;;4.82;77.21;98278.97;4465792;32;33168;-81
2022/04/02 10:32:09;;;;;;;16.95;9.50;;;;;;;4.53;78.57;98267.69;4478026;32;34680;-81
2022/04/02 10:35:06;;;;;;;14.75;9.13;;;;;;;4.58;78.92;98271.09;4479367;32;35168;-81
2022/04/02 10:38:01;;;;;;;15.93;10.48;;;;;;;4.10;78.66;98266.13;4442310;31;34634;-79
2022/04/02 10:40:50;;;;;;;17.62;10.55;;;;;;;4.11;80.11;98278.56;4477084;32;32883;-80
2022/04/02 10:44:00;;;;;;;16.17;9.43;;;;;;;3.71;81.29;98275.53;4457177;32;35576;-81
2022/04/02 10:46:49;;;;;;;17.60;9.50;;;;;;;3.99;79.93;98279.06;4468118;32;34958;-80
2022/04/02 10:49:39;;;;;;;16.48;8.63;;;;;;;4.31;78.44;98279.28;4457618;32;34809;-81
2022/04/02 10:52:26;;;;;;;14.95;8.25;;;;;;;4.31;77.57;98288.19;4446402;32;35456;-80
2022/04/02 10:55:18;;;;;;;15.68;8.45;;;;;;;4.52;77.95;98285.84;4453514;31;34426;-82
2022/04/02 10:58:08;;;;;;;13.38;7.65;;;;;;;4.39;78.34;98282.06;4465650;32;34627;-79
2022/04/02 11:00:58;;;;;;;14.60;8.23;;;;;;;4.19;79.21;98288.72;4467062;32;35636;-80
2022/04/02 11:03:52;;;;;;;16.17;9.07;;;;;;;4.23;79.90;98287.00;4467338;32;32964;-79
2022/04/02 11:06:45;;;;;;;15.70;8.48;;;;;;;4.52;79.13;98304.84;4457580;32;34485;-76
2022/04/02 11:09:50;;;;;;;14.98;8.80;;;;;;;4.32;80.03;98299.84;4467864;31;34910;-80
2022/04/02 11:12:39;;;;;;;14.68;8.80;;;;;;;4.33;78.59;98306.91;4479764;32;34648;-78
2022/04/02 11:15:27;;;;;;;13.77;8.50;;;;;;;4.48;78.65;98298.44;4457015;32;34866;-80
2022/04/02 11:18:18;;;;;;;15.77;9.40;;;;;;;4.11;80.62;98302.16;4468225;32;33335;-81
2022/04/02 11:21:07;;;;;;;14.68;8.45;;;;;;;3.97;81.00;98308.37;4479523;32;34015;-81
2022/04/02 11:24:00;;;;;;;15.30;9.40;;;;;;;4.24;80.31;98306.78;4467111;32;34237;-80
2022/04/02 11:26:49;;;;;;;14.90;9.23;;;;;;;4.22;80.82;98306.28;4466664;32;34237;-82
2022/04/02 11:29:39;;;;;;;16.23;8.20;;;;;;;4.03;80.39;98304.47;4465451;32;34640;-81
2022/04/02 11:32:28;;;;;;;19.58;8.57;;;;;;;4.26;78.79;98305.38;4466716;32;35984;-80
2022/04/02 11:35:22;;;;;;;27.83;13.00;;;;;;;4.40;78.89;98307.28;4456827;32;35233;-82
2022/04/02 11:38:21;;;;;;;51.45;21.45;;;;;;;3.92;81.82;98307.66;4455063;32;35093;-79
2022/04/02 11:41:21;;;;;;;19.10;9.98;;;;;;;4.34;82.23;98316.63;4478191;32;35666;-80
2022/04/02 11:44:16;;;;;;;15.38;8.82;;;;;;;4.80;79.13;98311.03;4466964;32;34896;-79
2022/04/02 11:47:08;;;;;;;19.58;10.70;;;;;;;4.48;79.60;98315.50;4467038;32;34816;-81
2022/04/02 11:50:03;;;;;;;12.32;7.32;;;;;;;4.63;79.14;98308.94;4467175;32;34418;-80
2022/04/02 11:52:52;;;;;;;13.68;7.75;;;;;;;4.19;79.72;98301.47;4477974;32;34358;-80
2022/04/02 11:55:40;;;;;;;17.45;9.30;;;;;;;4.09;81.04;98315.22;4467470;32;35970;-80
2022/04/02 11:58:38;;;;;;;15.27;9.10;;;;;;;4.56;79.98;98314.00;4456067;32;34224;-81
2022/04/02 12:01:25;;;;;;;17.33;9.93;;;;;;;4.54;79.64;98323.53;4456794;32;34283;-79
2022/04/02 12:04:14;;;;;;;15.43;8.50;;;;;;;5.02;77.33;98318.41;4456475;32;34552;-81
2022/04/02 12:07:06;;;;;;;13.75;7.85;;;;;;;4.52;78.37;98321.12;4467056;32;35362;-79
2022/04/02 12:09:53;;;;;;;15.60;9.55;;;;;;;4.59;78.91;98321.53;4456673;32;34170;-80
2022/04/02 12:12:49;;;;;;;17.02;9.13;;;;;;;4.38;79.98;98320.34;4478353;31;34225;-80
2022/04/02 12:15:37;;;;;;;13.75;8.35;;;;;;;4.71;82.36;98323.72;4466411;31;34585;-82
2022/04/02 12:18:23;;;;;;;14.48;8.32;;;;;;;4.46;82.37;98312.28;4458678;32;34797;-81
2022/04/02 12:21:09;;;;;;;15.85;8.40;;;;;;;4.33;85.72;98313.12;4481111;32;35476;-81
2022/04/02 12:23:59;;;;;;;13.95;8.82;;;;;;;4.33;85.90;98306.91;4469784;32;33841;-82
2022/04/02 12:26:47;;;;;;;15.32;8.57;;;;;;;4.10;85.50;98319.53;4467682;32;34400;-83
2022/04/02 12:29:33;;;;;;;14.70;8.15;;;;;;;4.14;86.44;98321.34;4470966;32;34195;-81
2022/04/02 12:32:40;;;;;;;14.23;7.95;;;;;;;4.15;86.92;98316.72;4479498;32;34156;-81
2022/04/02 12:35:28;;;;;;;17.70;9.02;;;;;;;4.24;87.29;98320.31;4459077;32;34102;-80
2022/04/02 12:38:25;;;;;;;17.10;9.75;;;;;;;4.42;86.91;98324.84;4469186;32;35407;-80
2022/04/02 12:41:20;;;;;;;16.02;11.12;;;;;;;4.36;87.17;98328.78;4458705;32;35019;-81
2022/04/02 12:44:09;;;;;;;18.45;9.70;;;;;;;4.18;86.95;98333.19;4469284;32;35715;-80
2022/04/02 12:47:10;;;;;;;15.25;9.07;;;;;;;4.42;88.19;98333.00;4465336;31;33932;-81
2022/04/02 12:50:10;;;;;;;17.23;8.40;;;;;;;4.19;88.25;98328.59;4457212;31;34679;-82
2022/04/02 12:52:56;;;;;;;12.68;7.55;;;;;;;3.91;88.04;98328.56;4465264;32;34917;-81
2022/04/02 12:55:47;;;;;;;15.50;8.45;;;;;;;3.65;88.68;98330.13;4468845;32;33602;-82
2022/04/02 12:58:40;;;;;;;14.87;8.32;;;;;;;3.94;88.73;98333.38;4479972;32;33858;-81
2022/04/02 13:01:33;;;;;;;14.25;8.52;;;;;;;4.22;89.55;98333.41;4466188;32;33246;-79
2022/04/02 13:04:27;;;;;;;11.15;7.28;;;;;;;3.81;88.44;98326.00;4477883;32;34924;-78
2022/04/02 13:07:20;;;;;;;15.68;9.40;;;;;;;4.09;88.13;98323.34;4466039;31;35479;-79
2022/04/02 13:10:07;;;;;;;17.23;9.43;;;;;;;3.62;88.67;98333.41;4456103;32;33634;-76
2022/04/02 13:12:58;;;;;;;15.15;8.85;;;;;;;3.64;91.04;98333.91;4466807;32;34227;-77
2022/04/02 13:15:53;;;;;;;15.73;9.27;;;;;;;3.79;91.87;98330.94;4454360;32;35783;-77